Airfield :
LOGIN :

Register | Disclaimer

   EN    FR    IT 

 










Legend :    VFR   Marginal VFR   IFR   Intensive IFR   Very Intensive IFR
Visi :
Ceiling :
>= 8 km
>= 3000ft
5 to 8 km
1000 to 3000 ft
1500m to 5 km
500 to 1000 ft
800 to 1500m
200 to 500 ft
< 800m
< 200 ft
Symbols :   Thunderstorms  Fog  Heavy snow  Heavy precipitations  Wind > 20 kt
SIGMETs :     Misc.  Thunderstorms  Icing  Turbulence  Mountain Waves  Volcanic Ashes






- Airport Elevation : 79 ft
- IATA code : NSY


LICZ - Sigonella (Mil) Catania

CURRENT METAR :
  • 270855Z 29002KT CAVOK 14/03 Q1023 RMK SKC VIS MIN 9999 WIND THR28 27003KT WIND THR10 28003KT A3023 BLU

EXPIRED METARs :
  • 270755Z 24005KT CAVOK 10/07 Q1023 RMK SKC VIS MIN 9999 WIND THR28 25004KT WIND THR10 26003KT A3023 BLU
  • 270655Z 25005KT CAVOK 07/07 Q1023 RMK SKC VIS MIN 9999 WIND THR28 24004KT WIND THR10 25003KT A3023 BLU

TAF TAF LICZ
Valid from the 27 at 06:00 until the 28 at 06:00 UTC


270500Z 2706/2806 27004KT CAVOK



MET'MAP, your aeronautical weather chart ! - Copyright ORBIFLY December 2007 - Disclaimer

ORBIFLY MET'MAP TEAM :

Programming & Development : Alexandra Zaïnal
Concept & original design : Baudouin d'Aumeries
Assistance for programming : Marc-Olivier Méhu
Technical & hardware support : Manuel Goepfert

Contact : metmap@orbifly.com




SOURCES & CREDITS :

   NOAA